AirNav   Pilot Hours Calculator
 
 1395 users online  

91FD WPEC Inc Heliport
Mangonia Park, Florida, USA

GOING TO MANGONIA PARK?


FAA INFORMATION EFFECTIVE 05 DECEMBER 2019

Location

FAA Identifier: 91FD
Lat/Long: 26-45-40.9100N 080-04-10.9100W
26-45.681833N 080-04.181833W
26.7613639,-80.0696972
(estimated)
Elevation: 18 ft. / 5 m (estimated)
Variation: 04W (1990)
From city: 1 mile N of MANGONIA PARK, FL
Time zone: UTC -5 (UTC -4 during Daylight Saving Time)
Zip code: 33407

Heliport Operations

Heliport use: Private use. Permission required prior to landing
Activation date: 04/1993
Control tower: no
ARTCC: MIAMI CENTER
FSS: MIAMI FLIGHT SERVICE STATION
Attendance: UNATNDD
Wind indicator: lighted
Segmented circle: no

Heliport Communications

WX ASOS at PBI (5 nm S): 123.75 (561-683-2548)
WX AWOS-3 at F45 (10 nm NW): 119.975 (561-630-6932)
WX AWOS-3PT at LNA (10 nm S): 119.925 (561-964-0308)

Nearby radio navigation aids

VOR radial/distance  VOR name  Freq  Var
PBIr013/5.0PALM BEACH VORTAC115.7003W
PHKr092/33.3PAHOKEE VOR/DME115.4000E

 
NDB name  Hdg/Dist  Freq  Var  ID
UNITED127/16.740505WUTX ..- - -..-

Heliport Services

Runway Information

Helipad H1

Dimensions: 160 x 130 ft. / 49 x 40 m
Surface: turf
Latitude: 26-45.681833N
Longitude: 080-04.181833W
Elevation: 18.0 ft.
Traffic pattern: leftleft

Heliport Ownership and Management from official FAA records

Ownership: Privately-owned
Owner: WPEC
1100 FAIRFIELD DRIVE
MANGONIA PARK, FL 33409
Phone 407-844-1212
Manager: ROBERT BLAUVELT
1100 FAIRFIELD DR
WEST PALM BEACH, FL 33407
Phone 561-844-1212

Additional Remarks

FOR CD CTC PALM BEACH APCH AT 561-275-1430

Instrument Procedures

There are no published instrument procedures at 91FD.

Some nearby airports with instrument procedures:

KPBI - Palm Beach International Airport (5 nm S)
F45 - North Palm Beach County General Aviation Airport (10 nm NW)
KLNA - Palm Beach County Park Airport (10 nm S)
06FA - William P Gwinn Airport (16 nm NW)
KBCT - Boca Raton Airport (23 nm S)
 
Loc | Ops | Rwys | IFR | FBO | Links
Com | Nav | Svcs | Stats | Notes


 
Area around 91FD (WPEC Inc Heliport)
 
Road maps at: MapQuest Bing Google
 
Aerial photo
No photo
 
Sectional chart

 
Airport distance calculator
Flying to WPEC Inc Heliport? Find the distance to fly.

From to 91FD

Sunrise and sunset
Times for 09-Dec-2019
 Local
(UTC-5)
 Zulu
(UTC)
Morning civil twilight06:3311:33
Sunrise06:5911:59
Sunset17:2722:27
Evening civil twilight17:5222:52

Current date and time
Zulu (UTC)  09-Dec-2019 18:35:44
Local (UTC-5)  09-Dec-2019 13:35:44
 
METAR
KPBI 
5nm S 
091753Z 15009KT 10SM SCT034 SCT044 SCT250 28/18 A3009 RMK AO2 SLP189 T02780178 10283 20178 58023 $
KF45 
10nm NW 
091810Z AUTO 14008G14KT 10SM FEW037 FEW050 28/17 A3009 RMK AO2 TSNO
KLNA 
10nm S 
091815Z AUTO 14008KT 10SM SCT034 28/20 A3010 RMK AO2 T02750197 PNO
TAF
KPBI 
5nm S 
091728Z 0918/1018 14010KT P6SM SCT030 SCT050 FM100000 12007KT P6SM FEW040 SCT100 FM101500 14012KT P6SM SCT030
NOTAMs
Click for the latest NOTAMs
NOTAMs are issued by the DoD/FAA and will open in a separate window not controlled by AirNav.

 

 
 

Would you like to see your business listed on this page?

 If your business provides an interesting product or service to pilots, flight crews, aircraft, or users of the WPEC Inc Heliport, you should consider listing it here.  To start the listing process, click on the button below
 
Add a business
 

Other Pages about WPEC Inc Heliport

Update a link
 
Copyright © AirNav, LLC. All rights reserved. Privacy Policy  Contact